| time (UTC) | temp C | wind direction | speed KPH | gust KPH | rain 1hr cm | rain 24hr cm | rain mn cm | humidity % | barometer mb |
| 20260502225022 | 21 | 187 | 6.4 | 17.7 | 0.00 | 0.00 | 0.00 | 14 | 1017.5 |
| 20260502224541 | 21 | 248 | 1.6 | 14.5 | 0.00 | 0.00 | 0.00 | 16 | 1017.6 |
| 20260502224020 | 20 | 0 | 1.6 | 19.3 | 0.00 | 0.00 | 0.00 | 17 | 1017.7 |
| 20260502223521 | 20 | 185 | 8.0 | 19.3 | 0.00 | 0.00 | 0.00 | 14 | 1017.7 |
| 20260502223038 | 20 | 227 | 6.4 | 16.1 | 0.00 | 0.00 | 0.00 | 14 | 1017.8 |
| 20260502222521 | 20 | 177 | 6.4 | 12.9 | 0.00 | 0.00 | 0.00 | 20 | 1017.9 |
| 20260502222018 | 20 | 158 | 3.2 | 9.7 | 0.00 | 0.00 | 0.00 | 17 | 1018.0 |
| 20260502221541 | 20 | 109 | 3.2 | 9.7 | 0.00 | 0.00 | 0.00 | 19 | 1018.0 |
| 20260502221018 | 20 | 102 | 4.8 | 9.7 | 0.00 | 0.00 | 0.00 | 16 | 1018.0 |
| 20260502220519 | 20 | 158 | 3.2 | 14.5 | 0.00 | 0.00 | 0.00 | 13 | 1018.1 |
| 20260502220042 | 20 | 146 | 8.0 | 14.5 | 0.00 | 0.00 | 0.00 | 15 | 1018.2 |
| 20260502215522 | 21 | 133 | 1.6 | 11.3 | 0.00 | 0.00 | 0.00 | 17 | 1018.3 |
| 20260502215020 | 20 | 74 | 3.2 | 17.7 | 0.00 | 0.00 | 0.00 | 17 | 1018.2 |
| 20260502214534 | 20 | 132 | 6.4 | 17.7 | 0.00 | 0.00 | 0.00 | 17 | 1018.5 |
| 20260502214020 | 21 | 171 | 3.2 | 22.5 | 0.00 | 0.00 | 0.00 | 14 | 1018.4 |
| 20260502213521 | 20 | 173 | 6.4 | 22.5 | 0.00 | 0.00 | 0.00 | 16 | 1018.6 |
| 20260502213039 | 21 | 148 | 11.3 | 20.9 | 0.00 | 0.00 | 0.00 | 17 | 1018.7 |
| 20260502212523 | 21 | 163 | 4.8 | 11.3 | 0.00 | 0.00 | 0.00 | 16 | 1018.7 |
| 20260502212022 | 21 | 58 | 3.2 | 9.7 | 0.00 | 0.00 | 0.00 | 18 | 1018.7 |
| 20260502211541 | 21 | 72 | 3.2 | 9.7 | 0.00 | 0.00 | 0.00 | 21 | 1018.6 |
| 20260502211024 | 21 | 163 | 3.2 | 11.3 | 0.00 | 0.00 | 0.00 | 21 | 1018.7 |
| 20260502210537 | 20 | 165 | 4.8 | 11.3 | 0.00 | 0.00 | 0.00 | 17 | 1018.7 |
| 20260502210049 | 20 | 81 | 4.8 | 9.7 | 0.00 | 0.00 | 0.00 | 17 | 1018.7 |
| 20260502205522 | 20 | 51 | 4.8 | 8.0 | 0.00 | 0.00 | 0.00 | 18 | 1019.1 |
| 20260502205020 | 20 | 51 | 3.2 | 14.5 | 0.00 | 0.00 | 0.00 | 20 | 1019.1 |
| 20260502204541 | 20 | 159 | 3.2 | 14.5 | 0.00 | 0.00 | 0.00 | 18 | 1019.1 |
| 20260502204019 | 20 | 160 | 3.2 | 12.9 | 0.00 | 0.00 | 0.00 | 22 | 1019.2 |
| 20260502203521 | 20 | 29 | 1.6 | 12.9 | 0.00 | 0.00 | 0.00 | 18 | 1019.3 |
| 20260502203040 | 20 | 107 | 4.8 | 16.1 | 0.00 | 0.00 | 0.00 | 20 | 1019.3 |
| 20260502202521 | 20 | 78 | 6.4 | 16.1 | 0.00 | 0.00 | 0.00 | 19 | 1019.4 |
| 20260502202018 | 20 | 153 | 4.8 | 17.7 | 0.00 | 0.00 | 0.00 | 20 | 1019.5 |
| 20260502201545 | 20 | 71 | 8.0 | 17.7 | 0.00 | 0.00 | 0.00 | 21 | 1019.4 |
| 20260502201021 | 20 | 59 | 1.6 | 19.3 | 0.00 | 0.00 | 0.00 | 19 | 1019.6 |
| 20260502200521 | 20 | 74 | 6.4 | 19.3 | 0.00 | 0.00 | 0.00 | 21 | 1019.6 |
| 20260502200036 | 20 | 118 | 3.2 | 14.5 | 0.00 | 0.00 | 0.00 | 20 | 1019.6 |
| 20260502195519 | 19 | 161 | 6.4 | 14.5 | 0.00 | 0.00 | 0.00 | 22 | 1019.7 |
| 20260502195018 | 19 | 154 | 4.8 | 14.5 | 0.00 | 0.00 | 0.00 | 22 | 1019.7 |
| 20260502194541 | 19 | 137 | 3.2 | 9.7 | 0.00 | 0.00 | 0.00 | 25 | 1019.7 |
| 20260502194018 | 18 | 165 | 1.6 | 14.5 | 0.00 | 0.00 | 0.00 | 25 | 1019.8 |
| 20260502193518 | 18 | 157 | 1.6 | 14.5 | 0.00 | 0.00 | 0.00 | 27 | 1019.8 |
| 20260502193040 | 18 | 113 | 6.4 | 14.5 | 0.00 | 0.00 | 0.00 | 22 | 1019.9 |
| 20260502192519 | 18 | 132 | 4.8 | 11.3 | 0.00 | 0.00 | 0.00 | 24 | 1020.0 |
| 20260502192018 | 18 | 113 | 4.8 | 14.5 | 0.00 | 0.00 | 0.00 | 23 | 1020.1 |
| 20260502191552 | 18 | 111 | 6.4 | 14.5 | 0.00 | 0.00 | 0.00 | 20 | 1020.1 |
| 20260502191020 | 18 | 111 | 4.8 | 12.9 | 0.00 | 0.00 | 0.00 | 23 | 1020.1 |
| 20260502190521 | 18 | 106 | 4.8 | 14.5 | 0.00 | 0.00 | 0.00 | 22 | 1020.2 |
| 20260502190048 | 18 | 109 | 8.0 | 14.5 | 0.00 | 0.00 | 0.00 | 26 | 1020.2 |
| 20260502185521 | 18 | 70 | 1.6 | 8.0 | 0.00 | 0.00 | 0.00 | 27 | 1020.1 |
| 20260502185022 | 18 | 68 | 1.6 | 8.0 | 0.00 | 0.00 | 0.00 | 25 | 1020.2 |
| 20260502184546 | 18 | 78 | 1.6 | 14.5 | 0.00 | 0.00 | 0.00 | 24 | 1020.3 |
| 20260502184019 | 18 | 78 | 6.4 | 14.5 | 0.00 | 0.00 | 0.00 | 26 | 1020.4 |
| 20260502183521 | 18 | 81 | 6.4 | 12.9 | 0.00 | 0.00 | 0.00 | 24 | 1020.4 |
| 20260502183050 | 18 | 96 | 3.2 | 8.0 | 0.00 | 0.00 | 0.00 | 25 | 1020.4 |
| 20260502182521 | 17 | 104 | 3.2 | 11.3 | 0.00 | 0.00 | 0.00 | 25 | 1020.6 |
| 20260502182018 | 17 | 77 | 4.8 | 11.3 | 0.00 | 0.00 | 0.00 | 25 | 1020.7 |
| 20260502181545 | 17 | 109 | 3.2 | 12.9 | 0.00 | 0.00 | 0.00 | 27 | 1020.5 |
| 20260502181020 | 17 | 111 | 6.4 | 12.9 | 0.00 | 0.00 | 0.00 | 24 | 1020.5 |
| 20260502180521 | 17 | 159 | 6.4 | 24.1 | 0.00 | 0.00 | 0.00 | 26 | 1020.5 |
| 20260502164020 | 15 | 69 | 6.4 | 12.9 | 0.00 | 0.00 | 0.00 | 36 | 1021.0 |
| 20260502163520 | 15 | 76 | 6.4 | 12.9 | 0.00 | 0.00 | 0.00 | 36 | 1021.1 |
| 20260502163045 | 14 | 77 | 6.4 | 12.9 | 0.00 | 0.00 | 0.00 | 36 | 1021.1 |
| 20260502162522 | 14 | 71 | 6.4 | 12.9 | 0.00 | 0.00 | 0.00 | 38 | 1021.1 |
| 20260502162021 | 13 | 72 | 4.8 | 11.3 | 0.00 | 0.00 | 0.00 | 41 | 1021.1 |
| 20260502161537 | 13 | 71 | 4.8 | 8.0 | 0.00 | 0.00 | 0.00 | 42 | 1021.0 |
| 20260502161020 | 12 | 67 | 3.2 | 8.0 | 0.00 | 0.00 | 0.00 | 43 | 1021.1 |
| 20260502160524 | 12 | 86 | 3.2 | 6.4 | 0.00 | 0.00 | 0.00 | 44 | 1021.1 |
| 20260502152021 | 8 | 175 | 1.6 | 4.8 | 0.00 | 0.00 | 0.00 | 59 | 1021.2 |
| 20260502151542 | 7 | 182 | 1.6 | 4.8 | 0.00 | 0.00 | 0.00 | 62 | 1021.1 |
| 20260502151020 | 6 | 182 | 1.6 | 4.8 | 0.00 | 0.00 | 0.00 | 63 | 1021.2 |
| 20260502150520 | 6 | 0 | 0.0 | 4.8 | 0.00 | 0.00 | 0.00 | 67 | 1021.1 |
| 20260502130521 | -2 | 0 | 0.0 | 1.6 | 0.00 | 0.00 | 0.00 | 80 | 1020.8 |
| 20260502123523 | -2 | 0 | 0.0 | 0.0 | 0.00 | 0.00 | 0.00 | 79 | 1020.7 |
| 20260502123041 | -2 | 0 | 0.0 | 0.0 | 0.00 | 0.00 | 0.00 | 79 | 1020.8 |
| 20260502122521 | -2 | 0 | 0.0 | 0.0 | 0.00 | 0.00 | 0.00 | 80 | 1020.8 |
| 20260502122021 | -2 | 0 | 0.0 | 0.0 | 0.00 | 0.00 | 0.00 | 80 | 1020.8 |
| 20260502121548 | -2 | 0 | 0.0 | 0.0 | 0.00 | 0.00 | 0.00 | 80 | 1020.8 |
| 20260502121022 | -1 | 0 | 0.0 | 0.0 | 0.00 | 0.00 | 0.00 | 79 | 1020.8 |
| 20260502120520 | -1 | 0 | 0.0 | 0.0 | 0.00 | 0.00 | 0.00 | 78 | 1020.9 |
| 20260502115520 | -1 | 0 | 0.0 | 0.0 | 0.00 | 0.00 | 0.00 | 82 | 1020.7 |
| 20260502115020 | -1 | 0 | 0.0 | 0.0 | 0.00 | 0.00 | 0.00 | 82 | 1020.8 |
| 20260502114541 | -1 | 0 | 0.0 | 0.0 | 0.00 | 0.00 | 0.00 | 81 | 1020.9 |
| 20260502114020 | -1 | 0 | 0.0 | 0.0 | 0.00 | 0.00 | 0.00 | 82 | 1020.9 |
| 20260502113521 | -1 | 0 | 0.0 | 0.0 | 0.00 | 0.00 | 0.00 | 82 | 1021.0 |
| 20260502113036 | -2 | 0 | 0.0 | 0.0 | 0.00 | 0.00 | 0.00 | 81 | 1021.0 |
| 20260502112523 | -2 | 0 | 0.0 | 0.0 | 0.00 | 0.00 | 0.00 | 79 | 1021.0 |
| 20260502112021 | -2 | 0 | 0.0 | 1.6 | 0.00 | 0.00 | 0.00 | 78 | 1021.1 |
| 20260502111534 | -1 | 0 | 0.0 | 1.6 | 0.00 | 0.00 | 0.00 | 77 | 1021.0 |
| 20260502111021 | -1 | 0 | 0.0 | 0.0 | 0.00 | 0.00 | 0.00 | 78 | 1021.0 |
| 20260502110521 | -1 | 0 | 0.0 | 3.2 | 0.00 | 0.00 | 0.00 | 77 | 1021.0 |
| 20260502110038 | -1 | 0 | 0.0 | 3.2 | 0.00 | 0.00 | 0.00 | 78 | 1021.1 |
| 20260502105521 | -1 | 0 | 0.0 | 4.8 | 0.00 | 0.00 | 0.00 | 78 | 1021.1 |
| 20260502105020 | -1 | 0 | 0.0 | 4.8 | 0.00 | 0.00 | 0.00 | 80 | 1021.2 |
| 20260502104540 | -1 | 0 | 1.6 | 4.8 | 0.00 | 0.00 | 0.00 | 80 | 1021.2 |
| 20260502104020 | -1 | 238 | 1.6 | 4.8 | 0.00 | 0.00 | 0.00 | 80 | 1021.0 |
| 20260502103520 | -1 | 0 | 0.0 | 1.6 | 0.00 | 0.00 | 0.00 | 80 | 1021.1 |
| 20260502103044 | -1 | 219 | 0.0 | 1.6 | 0.00 | 0.00 | 0.00 | 79 | 1021.3 |
| 20260502102521 | -1 | 0 | 0.0 | 4.8 | 0.00 | 0.00 | 0.00 | 80 | 1021.2 |
| 20260502102020 | -1 | 0 | 0.0 | 4.8 | 0.00 | 0.00 | 0.00 | 79 | 1021.1 |
| 20260502101545 | -1 | 219 | 1.6 | 4.8 | 0.00 | 0.00 | 0.00 | 78 | 1021.1 |
| 20260502101020 | -1 | 0 | 3.2 | 6.4 | 0.00 | 0.00 | 0.00 | 77 | 1021.1 |
| 20260502100525 | 0 | 220 | 0.0 | 6.4 | 0.00 | 0.00 | 0.00 | 78 | 1021.1 |
| 20260502091021 | 0 | 0 | 0.0 | 0.0 | 0.00 | 0.00 | 0.00 | 73 | 1021.1 |
| 20260502090520 | 0 | 0 | 0.0 | 0.0 | 0.00 | 0.00 | 0.00 | 74 | 1021.2 |
| 20260502071021 | 5 | 0 | 0.0 | 1.6 | 0.00 | 0.00 | 0.00 | 60 | 1021.4 |
| 20260502070523 | 4 | 0 | 0.0 | 0.0 | 0.00 | 0.00 | 0.00 | 60 | 1021.4 |
| 20260502070037 | 4 | 0 | 0.0 | 0.0 | 0.00 | 0.00 | 0.00 | 62 | 1021.5 |
| 20260502065521 | 3 | 0 | 0.0 | 0.0 | 0.00 | 0.00 | 0.00 | 63 | 1021.4 |
| 20260502065024 | 3 | 0 | 0.0 | 0.0 | 0.00 | 0.00 | 0.00 | 62 | 1021.6 |
| 20260502064535 | 3 | 0 | 0.0 | 0.0 | 0.00 | 0.00 | 0.00 | 62 | 1021.5 |
| 20260502064020 | 3 | 0 | 0.0 | 0.0 | 0.00 | 0.00 | 0.00 | 62 | 1021.6 |
| 20260502063522 | 3 | 0 | 0.0 | 1.6 | 0.00 | 0.00 | 0.00 | 63 | 1021.6 |
| 20260502063041 | 3 | 0 | 0.0 | 1.6 | 0.00 | 0.00 | 0.00 | 64 | 1021.5 |
| 20260502062521 | 3 | 0 | 0.0 | 9.7 | 0.00 | 0.00 | 0.00 | 65 | 1021.6 |
| 20260502062023 | 3 | 202 | 3.2 | 9.7 | 0.00 | 0.00 | 0.00 | 66 | 1021.5 |
| 20260502061543 | 3 | 196 | 1.6 | 6.4 | 0.00 | 0.00 | 0.00 | 68 | 1021.5 |
| 20260502061021 | 2 | 177 | 3.2 | 6.4 | 0.00 | 0.00 | 0.00 | 68 | 1021.4 |
| 20260502060522 | 3 | 176 | 0.0 | 3.2 | 0.00 | 0.00 | 0.00 | 67 | 1021.3 |
| 20260502060041 | 3 | 0 | 0.0 | 1.6 | 0.00 | 0.00 | 0.00 | 67 | 1021.3 |
| 20260502055520 | 3 | 0 | 0.0 | 3.2 | 0.00 | 0.00 | 0.00 | 67 | 1021.3 |
| 20260502055022 | 3 | 0 | 0.0 | 3.2 | 0.00 | 0.00 | 0.00 | 66 | 1021.3 |
| 20260502054537 | 3 | 176 | 0.0 | 3.2 | 0.00 | 0.00 | 0.00 | 64 | 1021.4 |
| 20260502054021 | 3 | 0 | 0.0 | 0.0 | 0.00 | 0.00 | 0.00 | 64 | 1021.3 |
| 20260502053520 | 3 | 0 | 0.0 | 0.0 | 0.00 | 0.00 | 0.00 | 65 | 1021.4 |
| 20260502053036 | 3 | 0 | 0.0 | 0.0 | 0.00 | 0.00 | 0.00 | 65 | 1021.4 |
| 20260502052521 | 4 | 0 | 0.0 | 0.0 | 0.00 | 0.00 | 0.00 | 63 | 1021.4 |
| 20260502052020 | 4 | 0 | 0.0 | 1.6 | 0.00 | 0.00 | 0.00 | 63 | 1021.3 |
| 20260502051550 | 4 | 0 | 0.0 | 1.6 | 0.00 | 0.00 | 0.00 | 63 | 1021.3 |
| 20260502051019 | 4 | 0 | 0.0 | 1.6 | 0.00 | 0.00 | 0.00 | 62 | 1021.1 |
| 20260502050526 | 5 | 0 | 0.0 | 3.2 | 0.00 | 0.00 | 0.00 | 63 | 1021.2 |
| 20260502050042 | 5 | 0 | 0.0 | 6.4 | 0.00 | 0.00 | 0.00 | 63 | 1021.3 |
| 20260502045521 | 5 | 176 | 1.6 | 6.4 | 0.00 | 0.00 | 0.00 | 62 | 1021.3 |
| 20260502045027 | 5 | 352 | 3.2 | 6.4 | 0.00 | 0.00 | 0.00 | 59 | 1021.3 |
| 20260502044541 | 6 | 352 | 1.6 | 4.8 | 0.00 | 0.00 | 0.00 | 52 | 1021.3 |
| 20260502044026 | 6 | 351 | 0.0 | 3.2 | 0.00 | 0.00 | 0.00 | 56 | 1021.3 |
| 20260502043522 | 6 | 352 | 0.0 | 3.2 | 0.00 | 0.00 | 0.00 | 57 | 1021.3 |
| 20260502043040 | 6 | 352 | 0.0 | 4.8 | 0.00 | 0.00 | 0.00 | 57 | 1021.3 |
| 20260502042520 | 7 | 352 | 1.6 | 4.8 | 0.00 | 0.00 | 0.00 | 57 | 1021.3 |
| 20260502042023 | 7 | 352 | 3.2 | 6.4 | 0.00 | 0.00 | 0.00 | 56 | 1021.1 |
| 20260502041559 | 7 | 352 | 3.2 | 6.4 | 0.00 | 0.00 | 0.00 | 55 | 1021.3 |
| 20260502041021 | 8 | 355 | 3.2 | 6.4 | 0.00 | 0.00 | 0.00 | 54 | 1021.1 |
| 20260502040520 | 9 | 343 | 3.2 | 4.8 | 0.00 | 0.00 | 0.00 | 52 | 1021.1 |
| 20260502040041 | 9 | 342 | 1.6 | 8.0 | 0.00 | 0.00 | 0.00 | 49 | 1021.1 |
| 20260502035520 | 9 | 0 | 0.0 | 8.0 | 0.00 | 0.00 | 0.00 | 49 | 1021.1 |
| 20260502035021 | 8 | 342 | 4.8 | 8.0 | 0.00 | 0.00 | 0.00 | 49 | 1021.0 |
| 20260502034542 | 8 | 341 | 4.8 | 8.0 | 0.00 | 0.00 | 0.00 | 50 | 1021.0 |
| 20260502034023 | 8 | 338 | 4.8 | 8.0 | 0.00 | 0.00 | 0.00 | 49 | 1020.9 |
| 20260502033520 | 10 | 325 | 4.8 | 6.4 | 0.00 | 0.00 | 0.00 | 43 | 1020.9 |
| 20260502033053 | 10 | 302 | 1.6 | 6.4 | 0.00 | 0.00 | 0.00 | 41 | 1020.8 |
| 20260502032523 | 11 | 192 | 0.0 | 8.0 | 0.00 | 0.00 | 0.00 | 42 | 1020.4 |
| 20260502032020 | 11 | 0 | 1.6 | 9.7 | 0.00 | 0.00 | 0.00 | 42 | 1020.4 |
| 20260502031541 | 11 | 192 | 6.4 | 9.7 | 0.00 | 0.00 | 0.00 | 42 | 1020.3 |
| 20260502031020 | 11 | 190 | 6.4 | 9.7 | 0.00 | 0.00 | 0.00 | 43 | 1020.2 |
| 20260502030521 | 11 | 191 | 8.0 | 11.3 | 0.00 | 0.00 | 0.00 | 42 | 1020.2 |
| 20260502030042 | 11 | 182 | 8.0 | 11.3 | 0.00 | 0.00 | 0.00 | 42 | 1020.1 |
| 20260502025523 | 11 | 181 | 8.0 | 11.3 | 0.00 | 0.00 | 0.00 | 42 | 1020.1 |
| 20260502025020 | 12 | 188 | 6.4 | 9.7 | 0.00 | 0.00 | 0.00 | 43 | 1020.1 |
| 20260502024538 | 12 | 201 | 4.8 | 11.3 | 0.00 | 0.00 | 0.00 | 41 | 1020.1 |
| 20260502024020 | 12 | 202 | 8.0 | 11.3 | 0.00 | 0.00 | 0.00 | 43 | 1020.1 |
| 20260502023520 | 12 | 211 | 6.4 | 9.7 | 0.00 | 0.00 | 0.00 | 40 | 1020.1 |
| 20260502023035 | 13 | 186 | 3.2 | 9.7 | 0.00 | 0.00 | 0.00 | 40 | 1020.1 |
| 20260502022521 | 13 | 177 | 6.4 | 12.9 | 0.00 | 0.00 | 0.00 | 40 | 1020.1 |
| 20260502022022 | 13 | 175 | 9.7 | 12.9 | 0.00 | 0.00 | 0.00 | 39 | 1020.1 |
| 20260502021542 | 14 | 177 | 8.0 | 11.3 | 0.00 | 0.00 | 0.00 | 39 | 1020.0 |
| 20260502021024 | 13 | 178 | 8.0 | 12.9 | 0.00 | 0.00 | 0.00 | 38 | 1019.9 |
| 20260502020521 | 13 | 178 | 9.7 | 14.5 | 0.00 | 0.00 | 0.00 | 39 | 1019.9 |
| 20260502020045 | 14 | 167 | 9.7 | 14.5 | 0.00 | 0.00 | 0.00 | 39 | 1020.0 |
| 20260502015521 | 15 | 163 | 9.7 | 14.5 | 0.00 | 0.00 | 0.00 | 41 | 1019.9 |
| 20260502015026 | 15 | 164 | 9.7 | 14.5 | 0.00 | 0.00 | 0.00 | 39 | 1019.9 |
| 20260502014541 | 15 | 169 | 9.7 | 14.5 | 0.00 | 0.00 | 0.00 | 38 | 1019.8 |
| 20260502014020 | 16 | 173 | 9.7 | 14.5 | 0.00 | 0.00 | 0.00 | 37 | 1019.9 |
| 20260502013520 | 16 | 166 | 9.7 | 12.9 | 0.00 | 0.00 | 0.00 | 35 | 1019.9 |
| 20260502013038 | 16 | 169 | 9.7 | 12.9 | 0.00 | 0.00 | 0.00 | 34 | 1019.9 |
| 20260502012523 | 17 | 188 | 9.7 | 12.9 | 0.00 | 0.00 | 0.00 | 30 | 1020.0 |
| 20260502012020 | 17 | 0 | 0.0 | 3.2 | 0.00 | 0.00 | 0.00 | 31 | 1019.9 |
| 20260502011536 | 17 | 0 | 0.0 | 3.2 | 0.00 | 0.00 | 0.00 | 28 | 1020.0 |
| 20260502011020 | 17 | 101 | 0.0 | 4.8 | 0.00 | 0.00 | 0.00 | 29 | 1019.9 |
| 20260502010521 | 18 | 0 | 1.6 | 4.8 | 0.00 | 0.00 | 0.00 | 24 | 1020.0 |
| 20260502010037 | 18 | 101 | 1.6 | 4.8 | 0.00 | 0.00 | 0.00 | 25 | 1020.0 |
| 20260502005520 | 18 | 0 | 0.0 | 4.8 | 0.00 | 0.00 | 0.00 | 26 | 1020.1 |
| 20260502005023 | 18 | 101 | 1.6 | 4.8 | 0.00 | 0.00 | 0.00 | 26 | 1020.1 |
| 20260502004539 | 18 | 101 | 1.6 | 4.8 | 0.00 | 0.00 | 0.00 | 24 | 1020.1 |
| 20260502004023 | 18 | 101 | 1.6 | 6.4 | 0.00 | 0.00 | 0.00 | 23 | 1020.2 |
| 20260502003520 | 18 | 103 | 1.6 | 6.4 | 0.00 | 0.00 | 0.00 | 23 | 1020.1 |
| 20260502003040 | 18 | 115 | 1.6 | 4.8 | 0.00 | 0.00 | 0.00 | 24 | 1020.2 |
| 20260502002523 | 18 | 117 | 3.2 | 6.4 | 0.00 | 0.00 | 0.00 | 23 | 1020.2 |
| 20260502002023 | 18 | 161 | 1.6 | 9.7 | 0.00 | 0.00 | 0.00 | 26 | 1020.2 |
| 20260502001538 | 18 | 162 | 1.6 | 9.7 | 0.00 | 0.00 | 0.00 | 25 | 1020.0 |
| 20260502001022 | 19 | 162 | 6.4 | 9.7 | 0.00 | 0.00 | 0.00 | 24 | 1020.1 |
| 20260502000521 | 20 | 167 | 3.2 | 8.0 | 0.00 | 0.00 | 0.00 | 22 | 1020.1 |
| 20260502000037 | 20 | 5 | 0.0 | 6.4 | 0.00 | 0.00 | 0.00 | 24 | 1020.1 |
| 20260501235521 | 20 | 5 | 1.6 | 6.4 | 0.00 | 0.00 | 0.00 | 23 | 1020.2 |
| 20260501235022 | 20 | 5 | 0.0 | 6.4 | 0.00 | 0.00 | 0.00 | 23 | 1020.3 |
| 20260501234534 | 19 | 5 | 1.6 | 9.7 | 0.00 | 0.00 | 0.00 | 24 | 1020.4 |
| 20260501234022 | 19 | 5 | 3.2 | 9.7 | 0.00 | 0.00 | 0.00 | 23 | 1020.4 |
| 20260501233521 | 19 | 46 | 4.8 | 9.7 | 0.00 | 0.00 | 0.00 | 24 | 1020.4 |
| 20260501233040 | 18 | 67 | 1.6 | 4.8 | 0.00 | 0.00 | 0.00 | 25 | 1020.4 |
| 20260501232520 | 18 | 103 | 1.6 | 9.7 | 0.00 | 0.00 | 0.00 | 22 | 1020.4 |
| 20260501232018 | 18 | 98 | 3.2 | 11.3 | 0.00 | 0.00 | 0.00 | 24 | 1020.6 |
| 20260501231553 | 18 | 0 | 3.2 | 11.3 | 0.00 | 0.00 | 0.00 | 21 | 1020.6 |
| 20260501231020 | 19 | 65 | 3.2 | 8.0 | 0.00 | 0.00 | 0.00 | 23 | 1020.7 |
| 20260501230523 | 19 | 79 | 1.6 | 9.7 | 0.00 | 0.00 | 0.00 | 25 | 1020.8 |
| 20260501230039 | 18 | 168 | 0.0 | 9.7 | 0.00 | 0.00 | 0.00 | 28 | 1020.9 |
| 20260501225519 | 18 | 88 | 3.2 | 8.0 | 0.00 | 0.00 | 0.00 | 24 | 1020.8 |